sensor_id;sensor_type;location;lat;lon;timestamp;temperature;humidity
22112;DHT22;11222;50.872;4.312;2023-09-19T00:01:08;16.00;99.90
22112;DHT22;11222;50.872;4.312;2023-09-19T00:03:35;16.00;99.90
22112;DHT22;11222;50.872;4.312;2023-09-19T00:06:04;16.00;99.90
22112;DHT22;11222;50.872;4.312;2023-09-19T00:08:36;16.00;99.90
22112;DHT22;11222;50.872;4.312;2023-09-19T00:11:02;16.00;99.90
22112;DHT22;11222;50.872;4.312;2023-09-19T00:13:31;16.00;99.90
22112;DHT22;11222;50.872;4.312;2023-09-19T00:15:57;16.00;99.90
22112;DHT22;11222;50.872;4.312;2023-09-19T00:18:25;16.00;99.90
22112;DHT22;11222;50.872;4.312;2023-09-19T00:21:01;16.00;99.90
22112;DHT22;11222;50.872;4.312;2023-09-19T00:23:27;15.90;99.90
22112;DHT22;11222;50.872;4.312;2023-09-19T00:25:53;16.00;99.90
22112;DHT22;11222;50.872;4.312;2023-09-19T00:28:23;15.90;99.90
22112;DHT22;11222;50.872;4.312;2023-09-19T00:30:49;15.90;99.90
22112;DHT22;11222;50.872;4.312;2023-09-19T00:33:20;15.90;99.90
22112;DHT22;11222;50.872;4.312;2023-09-19T00:35:48;15.80;99.90
22112;DHT22;11222;50.872;4.312;2023-09-19T00:38:14;15.80;99.90
22112;DHT22;11222;50.872;4.312;2023-09-19T00:40:45;15.80;99.90
22112;DHT22;11222;50.872;4.312;2023-09-19T00:43:12;15.80;99.90
22112;DHT22;11222;50.872;4.312;2023-09-19T00:45:39;15.70;99.90
22112;DHT22;11222;50.872;4.312;2023-09-19T00:48:08;15.70;99.90
22112;DHT22;11222;50.872;4.312;2023-09-19T00:50:35;15.70;99.90
22112;DHT22;11222;50.872;4.312;2023-09-19T00:53:01;15.70;99.90
22112;DHT22;11222;50.872;4.312;2023-09-19T00:55:34;15.70;99.90
22112;DHT22;11222;50.872;4.312;2023-09-19T00:58:00;15.70;99.90
22112;DHT22;11222;50.872;4.312;2023-09-19T01:00:26;15.70;99.90
22112;DHT22;11222;50.872;4.312;2023-09-19T01:02:53;15.70;99.90
22112;DHT22;11222;50.872;4.312;2023-09-19T01:05:19;15.70;99.90
22112;DHT22;11222;50.872;4.312;2023-09-19T01:07:45;15.70;99.90
22112;DHT22;11222;50.872;4.312;2023-09-19T01:10:17;15.60;99.90
22112;DHT22;11222;50.872;4.312;2023-09-19T01:20:50;15.60;99.90
22112;DHT22;11222;50.872;4.312;2023-09-19T01:26:42;15.50;99.90
22112;DHT22;11222;50.872;4.312;2023-09-19T01:32:02;15.60;99.90
22112;DHT22;11222;50.872;4.312;2023-09-19T01:34:46;15.60;99.90
22112;DHT22;11222;50.872;4.312;2023-09-19T01:37:18;15.70;99.90
22112;DHT22;11222;50.872;4.312;2023-09-19T01:40:03;15.70;99.90
22112;DHT22;11222;50.872;4.312;2023-09-19T01:42:57;15.60;99.90
22112;DHT22;11222;50.872;4.312;2023-09-19T01:47:56;15.40;99.90
22112;DHT22;11222;50.872;4.312;2023-09-19T01:50:46;15.40;99.90
22112;DHT22;11222;50.872;4.312;2023-09-19T01:53:30;15.40;99.90
22112;DHT22;11222;50.872;4.312;2023-09-19T01:55:59;15.50;99.90
22112;DHT22;11222;50.872;4.312;2023-09-19T01:58:41;15.40;99.90
22112;DHT22;11222;50.872;4.312;2023-09-19T02:01:11;15.50;99.90
22112;DHT22;11222;50.872;4.312;2023-09-19T02:03:39;15.50;99.90
22112;DHT22;11222;50.872;4.312;2023-09-19T02:06:06;15.50;99.90
22112;DHT22;11222;50.872;4.312;2023-09-19T02:08:36;15.40;99.90
22112;DHT22;11222;50.872;4.312;2023-09-19T02:11:02;15.40;99.90
22112;DHT22;11222;50.872;4.312;2023-09-19T02:13:28;15.40;99.90
22112;DHT22;11222;50.872;4.312;2023-09-19T02:15:56;15.40;99.90
22112;DHT22;11222;50.872;4.312;2023-09-19T02:18:21;15.50;99.90
22112;DHT22;11222;50.872;4.312;2023-09-19T02:20:47;15.50;99.90
22112;DHT22;11222;50.872;4.312;2023-09-19T02:23:14;15.60;99.90
22112;DHT22;11222;50.872;4.312;2023-09-19T02:25:41;15.60;99.90
22112;DHT22;11222;50.872;4.312;2023-09-19T02:28:07;15.60;99.90
22112;DHT22;11222;50.872;4.312;2023-09-19T02:30:34;15.70;99.90
22112;DHT22;11222;50.872;4.312;2023-09-19T02:33:01;15.60;99.90
22112;DHT22;11222;50.872;4.312;2023-09-19T02:35:28;15.60;99.90
22112;DHT22;11222;50.872;4.312;2023-09-19T02:37:53;15.70;99.90
22112;DHT22;11222;50.872;4.312;2023-09-19T02:40:19;15.60;99.90
22112;DHT22;11222;50.872;4.312;2023-09-19T02:42:46;15.70;99.90
22112;DHT22;11222;50.872;4.312;2023-09-19T02:45:12;15.60;99.90
22112;DHT22;11222;50.872;4.312;2023-09-19T02:47:40;15.70;99.90
22112;DHT22;11222;50.872;4.312;2023-09-19T02:50:06;15.60;99.90
22112;DHT22;11222;50.872;4.312;2023-09-19T02:52:31;15.60;99.90
22112;DHT22;11222;50.872;4.312;2023-09-19T02:54:57;15.60;99.90
22112;DHT22;11222;50.872;4.312;2023-09-19T02:57:23;15.50;99.90
22112;DHT22;11222;50.872;4.312;2023-09-19T02:59:49;15.50;99.90
22112;DHT22;11222;50.872;4.312;2023-09-19T03:02:15;15.40;99.90
22112;DHT22;11222;50.872;4.312;2023-09-19T03:04:41;15.40;99.90
22112;DHT22;11222;50.872;4.312;2023-09-19T03:07:07;15.40;99.90
22112;DHT22;11222;50.872;4.312;2023-09-19T03:09:32;15.40;99.90
22112;DHT22;11222;50.872;4.312;2023-09-19T03:11:58;15.30;99.90
22112;DHT22;11222;50.872;4.312;2023-09-19T03:14:24;15.30;99.90
22112;DHT22;11222;50.872;4.312;2023-09-19T03:16:50;15.30;99.90
22112;DHT22;11222;50.872;4.312;2023-09-19T03:19:18;15.20;99.90
22112;DHT22;11222;50.872;4.312;2023-09-19T03:21:46;15.30;99.90
22112;DHT22;11222;50.872;4.312;2023-09-19T03:24:12;15.20;99.90
22112;DHT22;11222;50.872;4.312;2023-09-19T03:26:38;15.20;99.90
22112;DHT22;11222;50.872;4.312;2023-09-19T03:29:04;15.10;99.90
22112;DHT22;11222;50.872;4.312;2023-09-19T03:31:33;15.20;99.90
22112;DHT22;11222;50.872;4.312;2023-09-19T03:33:59;15.10;99.90
22112;DHT22;11222;50.872;4.312;2023-09-19T03:36:24;15.10;99.90
22112;DHT22;11222;50.872;4.312;2023-09-19T03:38:50;15.10;99.90
22112;DHT22;11222;50.872;4.312;2023-09-19T03:41:16;15.10;99.90
22112;DHT22;11222;50.872;4.312;2023-09-19T03:43:42;15.20;99.90
22112;DHT22;11222;50.872;4.312;2023-09-19T03:46:08;15.20;99.90
22112;DHT22;11222;50.872;4.312;2023-09-19T03:48:35;15.20;99.90
22112;DHT22;11222;50.872;4.312;2023-09-19T03:51:00;15.20;99.90
22112;DHT22;11222;50.872;4.312;2023-09-19T03:53:26;15.10;99.90
22112;DHT22;11222;50.872;4.312;2023-09-19T03:55:51;15.00;99.90
22112;DHT22;11222;50.872;4.312;2023-09-19T03:58:17;15.00;99.90
22112;DHT22;11222;50.872;4.312;2023-09-19T04:00:43;14.90;99.90
22112;DHT22;11222;50.872;4.312;2023-09-19T04:03:08;14.90;99.90
22112;DHT22;11222;50.872;4.312;2023-09-19T04:05:36;14.90;99.90
22112;DHT22;11222;50.872;4.312;2023-09-19T04:08:01;14.80;99.90
22112;DHT22;11222;50.872;4.312;2023-09-19T04:10:27;14.80;99.90
22112;DHT22;11222;50.872;4.312;2023-09-19T04:12:54;14.80;99.90
22112;DHT22;11222;50.872;4.312;2023-09-19T04:15:21;14.80;99.90
22112;DHT22;11222;50.872;4.312;2023-09-19T04:17:50;14.80;99.90
22112;DHT22;11222;50.872;4.312;2023-09-19T04:20:17;14.70;99.90
22112;DHT22;11222;50.872;4.312;2023-09-19T04:22:45;14.70;99.90
22112;DHT22;11222;50.872;4.312;2023-09-19T04:25:12;14.70;99.90
22112;DHT22;11222;50.872;4.312;2023-09-19T04:27:37;14.70;99.90
22112;DHT22;11222;50.872;4.312;2023-09-19T04:30:04;14.70;99.90
22112;DHT22;11222;50.872;4.312;2023-09-19T04:32:40;14.70;99.90
22112;DHT22;11222;50.872;4.312;2023-09-19T04:35:10;14.70;99.90
22112;DHT22;11222;50.872;4.312;2023-09-19T04:37:39;14.70;99.90
22112;DHT22;11222;50.872;4.312;2023-09-19T04:40:10;14.70;99.90
22112;DHT22;11222;50.872;4.312;2023-09-19T04:42:41;14.60;99.90
22112;DHT22;11222;50.872;4.312;2023-09-19T04:45:07;14.60;99.90
22112;DHT22;11222;50.872;4.312;2023-09-19T04:47:35;14.60;99.90
22112;DHT22;11222;50.872;4.312;2023-09-19T04:50:01;14.60;99.90
22112;DHT22;11222;50.872;4.312;2023-09-19T04:52:27;14.60;99.90
22112;DHT22;11222;50.872;4.312;2023-09-19T04:54:56;14.60;99.90
22112;DHT22;11222;50.872;4.312;2023-09-19T04:57:22;14.60;99.90
22112;DHT22;11222;50.872;4.312;2023-09-19T04:59:48;14.60;99.90
22112;DHT22;11222;50.872;4.312;2023-09-19T05:02:14;14.60;99.90
22112;DHT22;11222;50.872;4.312;2023-09-19T05:04:40;14.60;99.90
22112;DHT22;11222;50.872;4.312;2023-09-19T05:07:05;14.60;99.90
22112;DHT22;11222;50.872;4.312;2023-09-19T05:09:31;14.60;99.90
22112;DHT22;11222;50.872;4.312;2023-09-19T05:11:59;14.50;99.90
22112;DHT22;11222;50.872;4.312;2023-09-19T05:14:25;14.60;99.90
22112;DHT22;11222;50.872;4.312;2023-09-19T05:16:50;14.60;99.90
22112;DHT22;11222;50.872;4.312;2023-09-19T05:19:16;14.60;99.90
22112;DHT22;11222;50.872;4.312;2023-09-19T05:21:42;14.70;99.90
22112;DHT22;11222;50.872;4.312;2023-09-19T05:24:08;14.60;99.90
22112;DHT22;11222;50.872;4.312;2023-09-19T05:26:33;14.70;99.90
22112;DHT22;11222;50.872;4.312;2023-09-19T05:28:59;14.60;99.90
22112;DHT22;11222;50.872;4.312;2023-09-19T05:31:27;14.60;99.90
22112;DHT22;11222;50.872;4.312;2023-09-19T05:33:53;14.60;99.90
22112;DHT22;11222;50.872;4.312;2023-09-19T05:36:20;14.60;99.90
22112;DHT22;11222;50.872;4.312;2023-09-19T05:38:46;14.60;99.90
22112;DHT22;11222;50.872;4.312;2023-09-19T05:41:15;14.60;99.90
22112;DHT22;11222;50.872;4.312;2023-09-19T05:43:41;14.60;99.90
22112;DHT22;11222;50.872;4.312;2023-09-19T05:46:08;14.60;99.90
22112;DHT22;11222;50.872;4.312;2023-09-19T05:48:34;14.60;99.90
22112;DHT22;11222;50.872;4.312;2023-09-19T05:51:00;14.70;99.90
22112;DHT22;11222;50.872;4.312;2023-09-19T05:53:26;14.60;99.90
22112;DHT22;11222;50.872;4.312;2023-09-19T05:55:52;14.60;99.90
22112;DHT22;11222;50.872;4.312;2023-09-19T05:58:19;14.70;99.90
22112;DHT22;11222;50.872;4.312;2023-09-19T06:00:45;14.60;99.90
22112;DHT22;11222;50.872;4.312;2023-09-19T06:03:13;14.70;99.90
22112;DHT22;11222;50.872;4.312;2023-09-19T06:05:40;14.70;99.90
22112;DHT22;11222;50.872;4.312;2023-09-19T06:08:07;14.70;99.90
22112;DHT22;11222;50.872;4.312;2023-09-19T06:10:33;14.80;99.90
22112;DHT22;11222;50.872;4.312;2023-09-19T06:13:02;14.80;99.90
22112;DHT22;11222;50.872;4.312;2023-09-19T06:15:32;14.90;99.90
22112;DHT22;11222;50.872;4.312;2023-09-19T06:17:59;14.90;99.90
22112;DHT22;11222;50.872;4.312;2023-09-19T06:20:25;14.90;99.90
22112;DHT22;11222;50.872;4.312;2023-09-19T06:22:52;15.00;99.90
22112;DHT22;11222;50.872;4.312;2023-09-19T06:25:19;15.00;99.90
22112;DHT22;11222;50.872;4.312;2023-09-19T06:27:49;15.00;99.90
22112;DHT22;11222;50.872;4.312;2023-09-19T06:30:17;15.00;99.90
22112;DHT22;11222;50.872;4.312;2023-09-19T06:32:43;15.00;99.90
22112;DHT22;11222;50.872;4.312;2023-09-19T06:35:10;15.10;99.90
22112;DHT22;11222;50.872;4.312;2023-09-19T06:37:38;15.10;99.90
22112;DHT22;11222;50.872;4.312;2023-09-19T06:40:11;15.10;99.90
22112;DHT22;11222;50.872;4.312;2023-09-19T06:42:44;15.20;99.90
22112;DHT22;11222;50.872;4.312;2023-09-19T06:45:14;15.20;99.90
22112;DHT22;11222;50.872;4.312;2023-09-19T06:47:45;15.20;99.90
22112;DHT22;11222;50.872;4.312;2023-09-19T06:50:11;15.30;99.90
22112;DHT22;11222;50.872;4.312;2023-09-19T06:52:42;15.20;99.90
22112;DHT22;11222;50.872;4.312;2023-09-19T06:55:08;15.20;99.90
22112;DHT22;11222;50.872;4.312;2023-09-19T06:57:35;15.30;99.90
22112;DHT22;11222;50.872;4.312;2023-09-19T07:00:01;15.30;99.90
22112;DHT22;11222;50.872;4.312;2023-09-19T07:02:27;15.30;99.90
22112;DHT22;11222;50.872;4.312;2023-09-19T07:04:53;15.20;99.90
22112;DHT22;11222;50.872;4.312;2023-09-19T07:07:19;15.20;99.90
22112;DHT22;11222;50.872;4.312;2023-09-19T07:09:46;15.20;99.90
22112;DHT22;11222;50.872;4.312;2023-09-19T07:12:15;15.30;99.90
22112;DHT22;11222;50.872;4.312;2023-09-19T07:14:41;15.40;99.90
22112;DHT22;11222;50.872;4.312;2023-09-19T07:17:06;15.40;99.90
22112;DHT22;11222;50.872;4.312;2023-09-19T07:19:32;15.40;99.90
22112;DHT22;11222;50.872;4.312;2023-09-19T07:21:57;15.40;99.90
22112;DHT22;11222;50.872;4.312;2023-09-19T07:24:25;15.50;99.90
22112;DHT22;11222;50.872;4.312;2023-09-19T07:26:52;15.60;99.90
22112;DHT22;11222;50.872;4.312;2023-09-19T07:29:19;15.60;99.90
22112;DHT22;11222;50.872;4.312;2023-09-19T07:31:46;15.60;99.90
22112;DHT22;11222;50.872;4.312;2023-09-19T07:34:13;15.70;99.90
22112;DHT22;11222;50.872;4.312;2023-09-19T07:36:39;15.80;99.90
22112;DHT22;11222;50.872;4.312;2023-09-19T07:39:06;15.90;99.90
22112;DHT22;11222;50.872;4.312;2023-09-19T07:41:33;16.00;99.90
22112;DHT22;11222;50.872;4.312;2023-09-19T07:43:58;16.00;99.90
22112;DHT22;11222;50.872;4.312;2023-09-19T07:46:24;16.00;99.90
22112;DHT22;11222;50.872;4.312;2023-09-19T07:48:51;15.90;99.90
22112;DHT22;11222;50.872;4.312;2023-09-19T07:51:29;16.00;99.90
22112;DHT22;11222;50.872;4.312;2023-09-19T07:53:57;16.10;99.90
22112;DHT22;11222;50.872;4.312;2023-09-19T07:56:25;16.20;99.90
22112;DHT22;11222;50.872;4.312;2023-09-19T07:58:51;16.20;99.90
22112;DHT22;11222;50.872;4.312;2023-09-19T08:01:17;16.30;99.90
22112;DHT22;11222;50.872;4.312;2023-09-19T08:03:44;16.30;99.90
22112;DHT22;11222;50.872;4.312;2023-09-19T08:06:10;16.40;99.90
22112;DHT22;11222;50.872;4.312;2023-09-19T08:08:36;16.30;99.90
22112;DHT22;11222;50.872;4.312;2023-09-19T08:11:06;16.30;99.90
22112;DHT22;11222;50.872;4.312;2023-09-19T08:13:39;16.40;99.90
22112;DHT22;11222;50.872;4.312;2023-09-19T08:16:15;16.40;99.90
22112;DHT22;11222;50.872;4.312;2023-09-19T08:18:41;16.50;99.90
22112;DHT22;11222;50.872;4.312;2023-09-19T08:21:07;16.50;99.90
22112;DHT22;11222;50.872;4.312;2023-09-19T08:23:37;16.60;99.90
22112;DHT22;11222;50.872;4.312;2023-09-19T08:26:03;16.70;99.90
22112;DHT22;11222;50.872;4.312;2023-09-19T08:28:36;16.80;99.90
22112;DHT22;11222;50.872;4.312;2023-09-19T08:31:05;16.80;99.90
22112;DHT22;11222;50.872;4.312;2023-09-19T08:33:32;16.90;99.90
22112;DHT22;11222;50.872;4.312;2023-09-19T08:35:59;17.10;99.90
22112;DHT22;11222;50.872;4.312;2023-09-19T08:38:25;17.10;99.90
22112;DHT22;11222;50.872;4.312;2023-09-19T08:40:57;17.10;99.90
22112;DHT22;11222;50.872;4.312;2023-09-19T08:43:24;17.20;99.90
22112;DHT22;11222;50.872;4.312;2023-09-19T08:45:49;17.30;99.90
22112;DHT22;11222;50.872;4.312;2023-09-19T08:48:28;17.40;99.90
22112;DHT22;11222;50.872;4.312;2023-09-19T08:51:07;17.30;99.90
22112;DHT22;11222;50.872;4.312;2023-09-19T08:56:11;17.60;99.90
22112;DHT22;11222;50.872;4.312;2023-09-19T09:01:19;17.90;99.90
22112;DHT22;11222;50.872;4.312;2023-09-19T09:03:52;18.10;99.90
22112;DHT22;11222;50.872;4.312;2023-09-19T09:06:26;18.30;99.90
22112;DHT22;11222;50.872;4.312;2023-09-19T09:08:53;18.50;99.90
22112;DHT22;11222;50.872;4.312;2023-09-19T09:11:20;18.50;99.90
22112;DHT22;11222;50.872;4.312;2023-09-19T09:13:46;18.60;99.90
22112;DHT22;11222;50.872;4.312;2023-09-19T09:16:13;18.90;99.90
22112;DHT22;11222;50.872;4.312;2023-09-19T09:18:40;18.80;99.90
22112;DHT22;11222;50.872;4.312;2023-09-19T09:21:06;19.00;99.90
22112;DHT22;11222;50.872;4.312;2023-09-19T09:23:32;19.00;99.90
22112;DHT22;11222;50.872;4.312;2023-09-19T09:25:59;19.10;99.90
22112;DHT22;11222;50.872;4.312;2023-09-19T09:28:30;19.20;99.90
22112;DHT22;11222;50.872;4.312;2023-09-19T09:30:57;19.10;99.90
22112;DHT22;11222;50.872;4.312;2023-09-19T09:33:24;19.30;99.90
22112;DHT22;11222;50.872;4.312;2023-09-19T09:35:58;19.30;99.90
22112;DHT22;11222;50.872;4.312;2023-09-19T09:38:30;19.20;99.90
22112;DHT22;11222;50.872;4.312;2023-09-19T09:41:09;19.30;99.90
22112;DHT22;11222;50.872;4.312;2023-09-19T09:43:39;19.10;99.90
22112;DHT22;11222;50.872;4.312;2023-09-19T09:46:26;19.20;99.90
22112;DHT22;11222;50.872;4.312;2023-09-19T09:51:48;18.80;99.90
22112;DHT22;11222;50.872;4.312;2023-09-19T09:54:28;18.70;99.90
22112;DHT22;11222;50.872;4.312;2023-09-19T09:57:01;18.60;99.90
22112;DHT22;11222;50.872;4.312;2023-09-19T09:59:55;18.80;99.90
22112;DHT22;11222;50.872;4.312;2023-09-19T10:02:28;19.20;99.90
22112;DHT22;11222;50.872;4.312;2023-09-19T10:04:58;19.30;99.90
22112;DHT22;11222;50.872;4.312;2023-09-19T10:07:40;19.30;99.90
22112;DHT22;11222;50.872;4.312;2023-09-19T10:10:11;19.60;99.90
22112;DHT22;11222;50.872;4.312;2023-09-19T10:12:49;19.80;99.90
22112;DHT22;11222;50.872;4.312;2023-09-19T10:15:18;20.40;99.90
22112;DHT22;11222;50.872;4.312;2023-09-19T10:17:47;20.70;99.90
22112;DHT22;11222;50.872;4.312;2023-09-19T10:20:15;21.30;99.90
22112;DHT22;11222;50.872;4.312;2023-09-19T10:23:01;21.20;99.90
22112;DHT22;11222;50.872;4.312;2023-09-19T10:25:30;21.00;99.90
22112;DHT22;11222;50.872;4.312;2023-09-19T10:28:00;21.70;99.90
22112;DHT22;11222;50.872;4.312;2023-09-19T10:30:29;21.90;99.90
22112;DHT22;11222;50.872;4.312;2023-09-19T10:33:03;22.20;99.90
22112;DHT22;11222;50.872;4.312;2023-09-19T10:35:32;22.80;99.90
22112;DHT22;11222;50.872;4.312;2023-09-19T10:38:01;23.10;99.90
22112;DHT22;11222;50.872;4.312;2023-09-19T10:40:28;23.40;99.90
22112;DHT22;11222;50.872;4.312;2023-09-19T10:43:04;22.90;99.90
22112;DHT22;11222;50.872;4.312;2023-09-19T10:45:34;22.40;99.90
22112;DHT22;11222;50.872;4.312;2023-09-19T10:48:03;22.40;99.90
22112;DHT22;11222;50.872;4.312;2023-09-19T10:50:35;22.90;99.90
22112;DHT22;11222;50.872;4.312;2023-09-19T10:53:04;23.20;99.90
22112;DHT22;11222;50.872;4.312;2023-09-19T10:55:33;23.20;99.90
22112;DHT22;11222;50.872;4.312;2023-09-19T10:58:01;22.90;99.90
22112;DHT22;11222;50.872;4.312;2023-09-19T11:00:30;23.30;99.90
22112;DHT22;11222;50.872;4.312;2023-09-19T11:05:41;23.80;99.90
22112;DHT22;11222;50.872;4.312;2023-09-19T11:08:10;24.00;99.90
22112;DHT22;11222;50.872;4.312;2023-09-19T11:10:50;24.10;99.90
22112;DHT22;11222;50.872;4.312;2023-09-19T11:13:30;24.70;99.90
22112;DHT22;11222;50.872;4.312;2023-09-19T11:16:03;24.40;99.90
22112;DHT22;11222;50.872;4.312;2023-09-19T11:27:12;22.60;99.90
22112;DHT22;11222;50.872;4.312;2023-09-19T11:29:39;22.20;99.90
22112;DHT22;11222;50.872;4.312;2023-09-19T11:32:05;22.40;99.90
22112;DHT22;11222;50.872;4.312;2023-09-19T11:34:38;22.10;99.90
22112;DHT22;11222;50.872;4.312;2023-09-19T11:40:08;21.00;99.90
22112;DHT22;11222;50.872;4.312;2023-09-19T11:42:45;21.20;99.90
22112;DHT22;11222;50.872;4.312;2023-09-19T11:48:23;21.50;99.90
22112;DHT22;11222;50.872;4.312;2023-09-19T11:50:51;21.10;99.90
22112;DHT22;11222;50.872;4.312;2023-09-19T11:53:18;20.80;99.90
22112;DHT22;11222;50.872;4.312;2023-09-19T11:55:45;21.20;99.90
22112;DHT22;11222;50.872;4.312;2023-09-19T11:58:12;21.80;99.90
22112;DHT22;11222;50.872;4.312;2023-09-19T12:00:40;21.60;99.90
22112;DHT22;11222;50.872;4.312;2023-09-19T12:03:10;21.60;99.90
22112;DHT22;11222;50.872;4.312;2023-09-19T12:05:37;21.60;99.90
22112;DHT22;11222;50.872;4.312;2023-09-19T12:08:04;21.60;99.90
22112;DHT22;11222;50.872;4.312;2023-09-19T12:10:43;21.30;99.90
22112;DHT22;11222;50.872;4.312;2023-09-19T12:13:09;21.00;99.90
22112;DHT22;11222;50.872;4.312;2023-09-19T12:15:37;20.80;99.90
22112;DHT22;11222;50.872;4.312;2023-09-19T12:18:05;20.80;99.90
22112;DHT22;11222;50.872;4.312;2023-09-19T12:20:44;20.80;99.90
22112;DHT22;11222;50.872;4.312;2023-09-19T12:23:15;20.90;99.90
22112;DHT22;11222;50.872;4.312;2023-09-19T12:25:45;21.00;99.90
22112;DHT22;11222;50.872;4.312;2023-09-19T12:28:13;21.10;99.90
22112;DHT22;11222;50.872;4.312;2023-09-19T12:30:39;21.30;99.90
22112;DHT22;11222;50.872;4.312;2023-09-19T12:33:19;21.20;99.90
22112;DHT22;11222;50.872;4.312;2023-09-19T12:35:46;20.80;99.90
22112;DHT22;11222;50.872;4.312;2023-09-19T12:38:23;20.60;99.90
22112;DHT22;11222;50.872;4.312;2023-09-19T12:40:50;20.60;99.90
22112;DHT22;11222;50.872;4.312;2023-09-19T12:43:17;20.60;99.90
22112;DHT22;11222;50.872;4.312;2023-09-19T12:45:43;20.70;99.90
22112;DHT22;11222;50.872;4.312;2023-09-19T12:51:08;20.80;99.90
22112;DHT22;11222;50.872;4.312;2023-09-19T12:53:40;20.70;99.90
22112;DHT22;11222;50.872;4.312;2023-09-19T12:56:08;20.70;99.90
22112;DHT22;11222;50.872;4.312;2023-09-19T12:58:54;20.60;99.90
22112;DHT22;11222;50.872;4.312;2023-09-19T13:01:21;20.70;99.90
22112;DHT22;11222;50.872;4.312;2023-09-19T13:04:25;20.80;99.90
22112;DHT22;11222;50.872;4.312;2023-09-19T13:06:55;20.90;99.90
22112;DHT22;11222;50.872;4.312;2023-09-19T13:09:26;20.70;99.90
22112;DHT22;11222;50.872;4.312;2023-09-19T13:12:37;20.80;99.90
22112;DHT22;11222;50.872;4.312;2023-09-19T13:15:11;20.80;99.90
22112;DHT22;11222;50.872;4.312;2023-09-19T13:17:44;20.80;99.90
22112;DHT22;11222;50.872;4.312;2023-09-19T13:20:30;20.80;99.90
22112;DHT22;11222;50.872;4.312;2023-09-19T13:22:58;20.60;99.90
22112;DHT22;11222;50.872;4.312;2023-09-19T13:25:26;20.60;99.90
22112;DHT22;11222;50.872;4.312;2023-09-19T13:27:56;20.60;99.90
22112;DHT22;11222;50.872;4.312;2023-09-19T13:30:24;20.70;99.90
22112;DHT22;11222;50.872;4.312;2023-09-19T13:32:51;20.80;99.90
22112;DHT22;11222;50.872;4.312;2023-09-19T13:35:18;21.00;99.90
22112;DHT22;11222;50.872;4.312;2023-09-19T13:37:44;20.90;99.90
22112;DHT22;11222;50.872;4.312;2023-09-19T13:40:17;21.00;99.90
22112;DHT22;11222;50.872;4.312;2023-09-19T13:42:43;20.90;99.90
22112;DHT22;11222;50.872;4.312;2023-09-19T13:45:09;20.80;99.90
22112;DHT22;11222;50.872;4.312;2023-09-19T13:47:37;20.90;99.90
22112;DHT22;11222;50.872;4.312;2023-09-19T13:50:04;20.70;99.90
22112;DHT22;11222;50.872;4.312;2023-09-19T13:52:33;20.80;99.90
22112;DHT22;11222;50.872;4.312;2023-09-19T13:54:59;20.70;99.90
22112;DHT22;11222;50.872;4.312;2023-09-19T13:57:25;20.60;99.90
22112;DHT22;11222;50.872;4.312;2023-09-19T13:59:54;20.60;99.90
22112;DHT22;11222;50.872;4.312;2023-09-19T14:02:23;20.60;99.90
22112;DHT22;11222;50.872;4.312;2023-09-19T14:04:49;20.70;99.90
22112;DHT22;11222;50.872;4.312;2023-09-19T14:07:15;20.70;99.90
22112;DHT22;11222;50.872;4.312;2023-09-19T14:09:44;20.70;99.90
22112;DHT22;11222;50.872;4.312;2023-09-19T14:12:09;20.60;99.90
22112;DHT22;11222;50.872;4.312;2023-09-19T14:14:35;20.50;99.90
22112;DHT22;11222;50.872;4.312;2023-09-19T14:17:03;20.40;99.90
22112;DHT22;11222;50.872;4.312;2023-09-19T14:19:28;20.50;99.90
22112;DHT22;11222;50.872;4.312;2023-09-19T14:21:54;20.80;99.90
22112;DHT22;11222;50.872;4.312;2023-09-19T14:24:23;20.90;99.90
22112;DHT22;11222;50.872;4.312;2023-09-19T14:26:49;20.80;99.90
22112;DHT22;11222;50.872;4.312;2023-09-19T14:29:15;20.80;99.90
22112;DHT22;11222;50.872;4.312;2023-09-19T14:31:42;20.70;99.90
22112;DHT22;11222;50.872;4.312;2023-09-19T14:34:13;20.60;99.90
22112;DHT22;11222;50.872;4.312;2023-09-19T14:36:40;20.50;99.90
22112;DHT22;11222;50.872;4.312;2023-09-19T14:39:06;20.40;99.90
22112;DHT22;11222;50.872;4.312;2023-09-19T14:41:31;20.40;99.90
22112;DHT22;11222;50.872;4.312;2023-09-19T14:43:57;20.40;99.90
22112;DHT22;11222;50.872;4.312;2023-09-19T14:46:23;20.50;99.90
22112;DHT22;11222;50.872;4.312;2023-09-19T14:48:51;20.60;99.90
22112;DHT22;11222;50.872;4.312;2023-09-19T14:51:17;20.50;99.90
22112;DHT22;11222;50.872;4.312;2023-09-19T14:53:45;20.40;99.90
22112;DHT22;11222;50.872;4.312;2023-09-19T14:56:11;20.30;99.90
22112;DHT22;11222;50.872;4.312;2023-09-19T14:58:38;20.20;99.90
22112;DHT22;11222;50.872;4.312;2023-09-19T15:01:06;20.20;99.90
22112;DHT22;11222;50.872;4.312;2023-09-19T15:03:35;20.20;99.90
22112;DHT22;11222;50.872;4.312;2023-09-19T15:06:09;20.20;99.90
22112;DHT22;11222;50.872;4.312;2023-09-19T15:08:37;20.10;99.90
22112;DHT22;11222;50.872;4.312;2023-09-19T15:11:07;20.20;99.90
22112;DHT22;11222;50.872;4.312;2023-09-19T15:13:33;20.20;99.90
22112;DHT22;11222;50.872;4.312;2023-09-19T15:16:00;20.20;99.90
22112;DHT22;11222;50.872;4.312;2023-09-19T15:18:28;20.20;99.90
22112;DHT22;11222;50.872;4.312;2023-09-19T15:20:55;20.20;99.90
22112;DHT22;11222;50.872;4.312;2023-09-19T15:23:21;20.10;99.90
22112;DHT22;11222;50.872;4.312;2023-09-19T15:25:50;20.10;99.90
22112;DHT22;11222;50.872;4.312;2023-09-19T15:28:16;20.00;99.90
22112;DHT22;11222;50.872;4.312;2023-09-19T15:30:42;19.90;99.90
22112;DHT22;11222;50.872;4.312;2023-09-19T15:33:07;19.90;99.90
22112;DHT22;11222;50.872;4.312;2023-09-19T15:35:33;19.80;99.90
22112;DHT22;11222;50.872;4.312;2023-09-19T15:37:58;19.70;99.90
22112;DHT22;11222;50.872;4.312;2023-09-19T15:40:26;19.70;99.90
22112;DHT22;11222;50.872;4.312;2023-09-19T15:42:54;19.70;99.90
22112;DHT22;11222;50.872;4.312;2023-09-19T15:45:20;19.70;99.90
22112;DHT22;11222;50.872;4.312;2023-09-19T15:47:45;19.80;99.90
22112;DHT22;11222;50.872;4.312;2023-09-19T15:50:11;19.70;99.90
22112;DHT22;11222;50.872;4.312;2023-09-19T15:52:41;19.70;99.90
22112;DHT22;11222;50.872;4.312;2023-09-19T15:55:07;19.80;99.90
22112;DHT22;11222;50.872;4.312;2023-09-19T15:57:36;19.80;99.90
22112;DHT22;11222;50.872;4.312;2023-09-19T16:00:03;19.80;99.90
22112;DHT22;11222;50.872;4.312;2023-09-19T16:02:36;19.70;99.90
22112;DHT22;11222;50.872;4.312;2023-09-19T16:05:02;19.70;99.90
22112;DHT22;11222;50.872;4.312;2023-09-19T16:07:31;19.70;99.90
22112;DHT22;11222;50.872;4.312;2023-09-19T16:09:56;19.70;99.90
22112;DHT22;11222;50.872;4.312;2023-09-19T16:12:24;19.70;99.90
22112;DHT22;11222;50.872;4.312;2023-09-19T16:14:50;19.60;99.90
22112;DHT22;11222;50.872;4.312;2023-09-19T16:17:16;19.60;99.90
22112;DHT22;11222;50.872;4.312;2023-09-19T16:19:42;19.60;99.90
22112;DHT22;11222;50.872;4.312;2023-09-19T16:22:12;19.60;99.90
22112;DHT22;11222;50.872;4.312;2023-09-19T16:24:39;19.50;99.90